sensor_id;sensor_type;location;lat;lon;timestamp;P1;durP1;ratioP1;P2;durP2;ratioP2
29764;SDS011;16667;-33.884;151.182;2022-09-09T00:00:42;4.47;;;4.07;;
29764;SDS011;16667;-33.884;151.182;2022-09-09T00:03:18;6.53;;;4.30;;
29764;SDS011;16667;-33.884;151.182;2022-09-09T00:05:55;6.65;;;4.60;;
29764;SDS011;16667;-33.884;151.182;2022-09-09T00:08:35;7.72;;;4.63;;
29764;SDS011;16667;-33.884;151.182;2022-09-09T00:11:16;9.15;;;4.47;;
29764;SDS011;16667;-33.884;151.182;2022-09-09T00:13:55;5.88;;;4.00;;
29764;SDS011;16667;-33.884;151.182;2022-09-09T00:16:32;6.82;;;4.07;;
29764;SDS011;16667;-33.884;151.182;2022-09-09T00:19:12;14.93;;;4.68;;
29764;SDS011;16667;-33.884;151.182;2022-09-09T00:21:53;7.82;;;3.90;;
29764;SDS011;16667;-33.884;151.182;2022-09-09T00:24:37;10.18;;;4.20;;
29764;SDS011;16667;-33.884;151.182;2022-09-09T00:27:14;6.47;;;4.00;;
29764;SDS011;16667;-33.884;151.182;2022-09-09T00:29:53;8.15;;;3.97;;
29764;SDS011;16667;-33.884;151.182;2022-09-09T00:32:27;6.00;;;3.80;;
29764;SDS011;16667;-33.884;151.182;2022-09-09T00:35:02;7.87;;;4.07;;
29764;SDS011;16667;-33.884;151.182;2022-09-09T00:37:42;5.53;;;3.50;;
29764;SDS011;16667;-33.884;151.182;2022-09-09T00:40:18;6.27;;;3.83;;
29764;SDS011;16667;-33.884;151.182;2022-09-09T00:42:58;4.35;;;3.33;;
29764;SDS011;16667;-33.884;151.182;2022-09-09T00:45:45;5.33;;;3.50;;
29764;SDS011;16667;-33.884;151.182;2022-09-09T00:48:30;3.72;;;2.92;;
29764;SDS011;16667;-33.884;151.182;2022-09-09T00:51:12;6.70;;;2.90;;
29764;SDS011;16667;-33.884;151.182;2022-09-09T00:53:58;5.20;;;2.78;;
29764;SDS011;16667;-33.884;151.182;2022-09-09T00:56:43;4.40;;;2.50;;
29764;SDS011;16667;-33.884;151.182;2022-09-09T00:59:25;3.78;;;2.10;;
29764;SDS011;16667;-33.884;151.182;2022-09-09T01:02:03;3.95;;;2.30;;
29764;SDS011;16667;-33.884;151.182;2022-09-09T01:04:45;5.18;;;2.30;;
29764;SDS011;16667;-33.884;151.182;2022-09-09T01:07:18;3.23;;;2.10;;
29764;SDS011;16667;-33.884;151.182;2022-09-09T01:09:53;3.67;;;1.98;;
29764;SDS011;16667;-33.884;151.182;2022-09-09T01:12:28;6.13;;;2.35;;
29764;SDS011;16667;-33.884;151.182;2022-09-09T01:15:10;4.75;;;2.25;;
29764;SDS011;16667;-33.884;151.182;2022-09-09T01:17:49;6.47;;;2.10;;
29764;SDS011;16667;-33.884;151.182;2022-09-09T01:20:25;3.10;;;1.90;;
29764;SDS011;16667;-33.884;151.182;2022-09-09T01:23:09;2.80;;;1.92;;
29764;SDS011;16667;-33.884;151.182;2022-09-09T01:26:20;3.33;;;1.95;;
29764;SDS011;16667;-33.884;151.182;2022-09-09T01:28:54;3.50;;;1.40;;
29764;SDS011;16667;-33.884;151.182;2022-09-09T01:31:27;3.00;;;1.70;;
29764;SDS011;16667;-33.884;151.182;2022-09-09T01:34:00;4.97;;;1.70;;
29764;SDS011;16667;-33.884;151.182;2022-09-09T01:36:38;3.58;;;1.55;;
29764;SDS011;16667;-33.884;151.182;2022-09-09T01:39:12;3.10;;;1.60;;
29764;SDS011;16667;-33.884;151.182;2022-09-09T01:41:44;2.40;;;1.30;;
29764;SDS011;16667;-33.884;151.182;2022-09-09T01:44:15;2.55;;;1.27;;
29764;SDS011;16667;-33.884;151.182;2022-09-09T01:46:49;2.47;;;1.30;;
29764;SDS011;16667;-33.884;151.182;2022-09-09T01:52:26;5.65;;;1.13;;
29764;SDS011;16667;-33.884;151.182;2022-09-09T01:54:59;2.50;;;1.38;;
29764;SDS011;16667;-33.884;151.182;2022-09-09T01:57:33;4.10;;;1.52;;
29764;SDS011;16667;-33.884;151.182;2022-09-09T02:00:12;2.88;;;1.30;;
29764;SDS011;16667;-33.884;151.182;2022-09-09T02:02:46;1.25;;;1.00;;
29764;SDS011;16667;-33.884;151.182;2022-09-09T02:05:30;2.50;;;1.02;;
29764;SDS011;16667;-33.884;151.182;2022-09-09T02:08:07;2.03;;;0.93;;
29764;SDS011;16667;-33.884;151.182;2022-09-09T02:10:42;2.20;;;1.13;;
29764;SDS011;16667;-33.884;151.182;2022-09-09T02:13:20;2.13;;;0.88;;
29764;SDS011;16667;-33.884;151.182;2022-09-09T02:15:52;2.35;;;1.70;;
29764;SDS011;16667;-33.884;151.182;2022-09-09T02:18:26;1.38;;;0.77;;
29764;SDS011;16667;-33.884;151.182;2022-09-09T02:21:01;2.00;;;0.77;;
29764;SDS011;16667;-33.884;151.182;2022-09-09T02:23:34;1.73;;;0.80;;
29764;SDS011;16667;-33.884;151.182;2022-09-09T02:26:05;0.98;;;0.68;;
29764;SDS011;16667;-33.884;151.182;2022-09-09T02:28:39;2.40;;;0.77;;
29764;SDS011;16667;-33.884;151.182;2022-09-09T02:31:11;2.05;;;0.57;;
29764;SDS011;16667;-33.884;151.182;2022-09-09T02:33:47;2.30;;;0.80;;
29764;SDS011;16667;-33.884;151.182;2022-09-09T02:36:24;1.40;;;0.60;;
29764;SDS011;16667;-33.884;151.182;2022-09-09T02:38:57;1.83;;;0.70;;
29764;SDS011;16667;-33.884;151.182;2022-09-09T02:41:30;1.88;;;0.80;;
29764;SDS011;16667;-33.884;151.182;2022-09-09T02:44:05;1.60;;;0.88;;
29764;SDS011;16667;-33.884;151.182;2022-09-09T02:46:45;2.23;;;0.60;;
29764;SDS011;16667;-33.884;151.182;2022-09-09T02:49:35;2.58;;;0.55;;
29764;SDS011;16667;-33.884;151.182;2022-09-09T02:52:13;2.35;;;0.65;;
29764;SDS011;16667;-33.884;151.182;2022-09-09T02:54:48;1.77;;;0.80;;
29764;SDS011;16667;-33.884;151.182;2022-09-09T02:57:23;3.13;;;0.75;;
29764;SDS011;16667;-33.884;151.182;2022-09-09T02:59:59;3.15;;;1.05;;
29764;SDS011;16667;-33.884;151.182;2022-09-09T03:02:30;0.80;;;0.60;;
29764;SDS011;16667;-33.884;151.182;2022-09-09T03:05:00;1.20;;;0.50;;
29764;SDS011;16667;-33.884;151.182;2022-09-09T03:07:31;1.90;;;0.50;;
29764;SDS011;16667;-33.884;151.182;2022-09-09T03:10:03;0.85;;;0.50;;
29764;SDS011;16667;-33.884;151.182;2022-09-09T03:12:38;0.80;;;0.50;;
29764;SDS011;16667;-33.884;151.182;2022-09-09T03:15:12;1.02;;;0.52;;
29764;SDS011;16667;-33.884;151.182;2022-09-09T03:17:45;0.90;;;0.50;;
29764;SDS011;16667;-33.884;151.182;2022-09-09T03:20:16;1.67;;;0.47;;
29764;SDS011;16667;-33.884;151.182;2022-09-09T03:22:46;1.70;;;0.70;;
29764;SDS011;16667;-33.884;151.182;2022-09-09T03:25:17;1.25;;;0.50;;
29764;SDS011;16667;-33.884;151.182;2022-09-09T03:27:49;1.67;;;0.60;;
29764;SDS011;16667;-33.884;151.182;2022-09-09T03:30:26;2.13;;;0.52;;
29764;SDS011;16667;-33.884;151.182;2022-09-09T03:32:57;3.10;;;0.60;;
29764;SDS011;16667;-33.884;151.182;2022-09-09T03:35:30;2.25;;;0.50;;
29764;SDS011;16667;-33.884;151.182;2022-09-09T03:38:00;1.00;;;0.50;;
29764;SDS011;16667;-33.884;151.182;2022-09-09T03:40:31;2.63;;;0.45;;
29764;SDS011;16667;-33.884;151.182;2022-09-09T03:43:02;2.05;;;0.70;;
29764;SDS011;16667;-33.884;151.182;2022-09-09T03:45:37;3.80;;;0.90;;
29764;SDS011;16667;-33.884;151.182;2022-09-09T03:48:10;3.40;;;1.10;;
29764;SDS011;16667;-33.884;151.182;2022-09-09T03:50:44;5.53;;;1.13;;
29764;SDS011;16667;-33.884;151.182;2022-09-09T03:53:15;7.38;;;1.35;;
29764;SDS011;16667;-33.884;151.182;2022-09-09T03:55:50;3.40;;;1.33;;
29764;SDS011;16667;-33.884;151.182;2022-09-09T03:58:22;4.80;;;1.20;;
29764;SDS011;16667;-33.884;151.182;2022-09-09T04:00:58;4.45;;;1.08;;
29764;SDS011;16667;-33.884;151.182;2022-09-09T04:03:30;5.55;;;0.90;;
29764;SDS011;16667;-33.884;151.182;2022-09-09T04:06:01;3.78;;;0.90;;
29764;SDS011;16667;-33.884;151.182;2022-09-09T04:08:33;1.75;;;0.80;;
29764;SDS011;16667;-33.884;151.182;2022-09-09T04:11:05;4.05;;;1.08;;
29764;SDS011;16667;-33.884;151.182;2022-09-09T04:13:37;2.72;;;0.90;;
29764;SDS011;16667;-33.884;151.182;2022-09-09T04:16:12;2.50;;;0.98;;
29764;SDS011;16667;-33.884;151.182;2022-09-09T04:18:46;1.88;;;0.90;;
29764;SDS011;16667;-33.884;151.182;2022-09-09T04:21:17;3.25;;;0.98;;
29764;SDS011;16667;-33.884;151.182;2022-09-09T04:23:48;3.83;;;1.00;;
29764;SDS011;16667;-33.884;151.182;2022-09-09T04:26:19;2.23;;;0.60;;
29764;SDS011;16667;-33.884;151.182;2022-09-09T04:28:50;1.67;;;0.60;;
29764;SDS011;16667;-33.884;151.182;2022-09-09T04:31:25;2.87;;;0.80;;
29764;SDS011;16667;-33.884;151.182;2022-09-09T04:33:56;2.40;;;0.82;;
29764;SDS011;16667;-33.884;151.182;2022-09-09T04:36:28;3.00;;;0.80;;
29764;SDS011;16667;-33.884;151.182;2022-09-09T04:38:59;1.67;;;0.77;;
29764;SDS011;16667;-33.884;151.182;2022-09-09T04:41:30;0.98;;;0.60;;
29764;SDS011;16667;-33.884;151.182;2022-09-09T04:44:03;2.37;;;0.90;;
29764;SDS011;16667;-33.884;151.182;2022-09-09T04:46:39;1.40;;;0.50;;
29764;SDS011;16667;-33.884;151.182;2022-09-09T04:49:10;1.10;;;0.30;;
29764;SDS011;16667;-33.884;151.182;2022-09-09T04:51:41;2.67;;;0.50;;
29764;SDS011;16667;-33.884;151.182;2022-09-09T04:54:13;1.60;;;0.50;;
29764;SDS011;16667;-33.884;151.182;2022-09-09T04:56:44;1.23;;;0.40;;
29764;SDS011;16667;-33.884;151.182;2022-09-09T04:59:14;2.50;;;0.70;;
29764;SDS011;16667;-33.884;151.182;2022-09-09T05:01:49;0.50;;;0.30;;
29764;SDS011;16667;-33.884;151.182;2022-09-09T05:04:21;0.65;;;0.40;;
29764;SDS011;16667;-33.884;151.182;2022-09-09T05:06:52;1.50;;;0.30;;
29764;SDS011;16667;-33.884;151.182;2022-09-09T05:09:22;2.58;;;0.40;;
29764;SDS011;16667;-33.884;151.182;2022-09-09T05:11:55;0.80;;;0.40;;
29764;SDS011;16667;-33.884;151.182;2022-09-09T05:14:29;1.80;;;0.57;;
29764;SDS011;16667;-33.884;151.182;2022-09-09T05:17:08;1.45;;;0.50;;
29764;SDS011;16667;-33.884;151.182;2022-09-09T05:19:41;2.03;;;0.32;;
29764;SDS011;16667;-33.884;151.182;2022-09-09T05:22:12;0.90;;;0.40;;
29764;SDS011;16667;-33.884;151.182;2022-09-09T05:24:49;5.97;;;1.30;;
29764;SDS011;16667;-33.884;151.182;2022-09-09T05:27:20;5.37;;;1.23;;
29764;SDS011;16667;-33.884;151.182;2022-09-09T05:29:51;4.90;;;1.42;;
29764;SDS011;16667;-33.884;151.182;2022-09-09T05:32:24;5.45;;;1.25;;
29764;SDS011;16667;-33.884;151.182;2022-09-09T05:34:58;9.85;;;1.67;;
29764;SDS011;16667;-33.884;151.182;2022-09-09T05:37:32;8.40;;;1.75;;
29764;SDS011;16667;-33.884;151.182;2022-09-09T05:40:06;9.82;;;1.95;;
29764;SDS011;16667;-33.884;151.182;2022-09-09T05:42:38;11.68;;;1.70;;
29764;SDS011;16667;-33.884;151.182;2022-09-09T05:45:09;9.60;;;2.00;;
29764;SDS011;16667;-33.884;151.182;2022-09-09T05:47:42;4.78;;;1.50;;
29764;SDS011;16667;-33.884;151.182;2022-09-09T05:50:14;10.50;;;1.67;;
29764;SDS011;16667;-33.884;151.182;2022-09-09T05:52:46;6.05;;;1.75;;
29764;SDS011;16667;-33.884;151.182;2022-09-09T05:55:18;11.60;;;2.03;;
29764;SDS011;16667;-33.884;151.182;2022-09-09T05:57:53;8.93;;;2.00;;
29764;SDS011;16667;-33.884;151.182;2022-09-09T06:00:28;10.32;;;1.80;;
29764;SDS011;16667;-33.884;151.182;2022-09-09T06:03:02;7.85;;;2.00;;
29764;SDS011;16667;-33.884;151.182;2022-09-09T06:05:35;6.47;;;2.22;;
29764;SDS011;16667;-33.884;151.182;2022-09-09T06:08:06;5.43;;;1.38;;
29764;SDS011;16667;-33.884;151.182;2022-09-09T06:10:40;3.17;;;0.87;;
29764;SDS011;16667;-33.884;151.182;2022-09-09T06:13:11;2.95;;;0.73;;
29764;SDS011;16667;-33.884;151.182;2022-09-09T06:15:49;1.95;;;0.75;;
29764;SDS011;16667;-33.884;151.182;2022-09-09T06:18:25;3.75;;;0.70;;
29764;SDS011;16667;-33.884;151.182;2022-09-09T06:21:00;1.67;;;0.63;;
29764;SDS011;16667;-33.884;151.182;2022-09-09T06:23:32;2.77;;;0.80;;
29764;SDS011;16667;-33.884;151.182;2022-09-09T06:26:09;5.15;;;1.10;;
29764;SDS011;16667;-33.884;151.182;2022-09-09T06:28:40;5.05;;;1.30;;
29764;SDS011;16667;-33.884;151.182;2022-09-09T06:31:14;2.20;;;1.07;;
29764;SDS011;16667;-33.884;151.182;2022-09-09T06:33:50;3.10;;;1.20;;
29764;SDS011;16667;-33.884;151.182;2022-09-09T06:36:24;4.10;;;1.27;;
29764;SDS011;16667;-33.884;151.182;2022-09-09T06:38:56;2.88;;;0.90;;
29764;SDS011;16667;-33.884;151.182;2022-09-09T06:41:30;3.60;;;1.13;;
29764;SDS011;16667;-33.884;151.182;2022-09-09T06:44:04;5.53;;;1.50;;
29764;SDS011;16667;-33.884;151.182;2022-09-09T06:46:37;3.33;;;1.40;;
29764;SDS011;16667;-33.884;151.182;2022-09-09T06:49:11;2.35;;;1.20;;
29764;SDS011;16667;-33.884;151.182;2022-09-09T06:51:42;2.83;;;1.10;;
29764;SDS011;16667;-33.884;151.182;2022-09-09T06:54:13;3.75;;;1.27;;
29764;SDS011;16667;-33.884;151.182;2022-09-09T06:56:46;3.03;;;1.48;;
29764;SDS011;16667;-33.884;151.182;2022-09-09T06:59:17;12.80;;;2.22;;
29764;SDS011;16667;-33.884;151.182;2022-09-09T07:01:47;10.45;;;2.78;;
29764;SDS011;16667;-33.884;151.182;2022-09-09T07:04:22;7.85;;;3.05;;
29764;SDS011;16667;-33.884;151.182;2022-09-09T07:06:53;10.70;;;3.45;;
29764;SDS011;16667;-33.884;151.182;2022-09-09T07:09:25;14.47;;;3.53;;
29764;SDS011;16667;-33.884;151.182;2022-09-09T07:12:01;13.48;;;3.80;;
29764;SDS011;16667;-33.884;151.182;2022-09-09T07:14:32;10.05;;;3.20;;
29764;SDS011;16667;-33.884;151.182;2022-09-09T07:17:03;11.50;;;3.50;;
29764;SDS011;16667;-33.884;151.182;2022-09-09T07:19:39;11.98;;;3.33;;
29764;SDS011;16667;-33.884;151.182;2022-09-09T07:22:09;10.07;;;3.03;;
29764;SDS011;16667;-33.884;151.182;2022-09-09T07:24:41;7.38;;;2.97;;
29764;SDS011;16667;-33.884;151.182;2022-09-09T07:27:15;10.48;;;3.53;;
29764;SDS011;16667;-33.884;151.182;2022-09-09T07:29:46;9.65;;;3.13;;
29764;SDS011;16667;-33.884;151.182;2022-09-09T07:32:17;8.70;;;3.17;;
29764;SDS011;16667;-33.884;151.182;2022-09-09T07:34:49;8.93;;;3.72;;
29764;SDS011;16667;-33.884;151.182;2022-09-09T07:37:20;7.97;;;3.17;;
29764;SDS011;16667;-33.884;151.182;2022-09-09T07:39:51;10.45;;;3.03;;
29764;SDS011;16667;-33.884;151.182;2022-09-09T07:42:29;12.38;;;3.00;;
29764;SDS011;16667;-33.884;151.182;2022-09-09T07:45:00;10.07;;;3.10;;
29764;SDS011;16667;-33.884;151.182;2022-09-09T07:47:31;14.00;;;3.10;;
29764;SDS011;16667;-33.884;151.182;2022-09-09T07:50:07;12.38;;;3.42;;
29764;SDS011;16667;-33.884;151.182;2022-09-09T07:52:38;10.20;;;4.10;;
29764;SDS011;16667;-33.884;151.182;2022-09-09T07:55:09;7.80;;;3.22;;
29764;SDS011;16667;-33.884;151.182;2022-09-09T07:57:43;11.68;;;3.65;;
29764;SDS011;16667;-33.884;151.182;2022-09-09T08:00:16;13.80;;;4.20;;
29764;SDS011;16667;-33.884;151.182;2022-09-09T08:02:49;7.47;;;3.50;;
29764;SDS011;16667;-33.884;151.182;2022-09-09T08:05:22;11.80;;;3.97;;
29764;SDS011;16667;-33.884;151.182;2022-09-09T08:07:53;14.20;;;4.07;;
29764;SDS011;16667;-33.884;151.182;2022-09-09T08:10:24;14.73;;;3.60;;
29764;SDS011;16667;-33.884;151.182;2022-09-09T08:12:58;7.93;;;3.30;;
29764;SDS011;16667;-33.884;151.182;2022-09-09T08:15:29;8.18;;;3.40;;
29764;SDS011;16667;-33.884;151.182;2022-09-09T08:18:00;11.35;;;3.85;;
29764;SDS011;16667;-33.884;151.182;2022-09-09T08:20:35;9.60;;;3.50;;
29764;SDS011;16667;-33.884;151.182;2022-09-09T08:23:08;11.15;;;3.40;;
29764;SDS011;16667;-33.884;151.182;2022-09-09T08:25:39;9.53;;;3.30;;
29764;SDS011;16667;-33.884;151.182;2022-09-09T08:28:17;9.20;;;3.13;;
29764;SDS011;16667;-33.884;151.182;2022-09-09T08:30:48;10.07;;;3.35;;
29764;SDS011;16667;-33.884;151.182;2022-09-09T08:33:19;8.90;;;3.37;;
29764;SDS011;16667;-33.884;151.182;2022-09-09T08:35:53;10.47;;;3.07;;
29764;SDS011;16667;-33.884;151.182;2022-09-09T08:38:23;8.15;;;2.60;;
29764;SDS011;16667;-33.884;151.182;2022-09-09T08:40:55;14.55;;;2.90;;
29764;SDS011;16667;-33.884;151.182;2022-09-09T08:43:32;9.32;;;3.42;;
29764;SDS011;16667;-33.884;151.182;2022-09-09T08:46:07;8.17;;;3.13;;
29764;SDS011;16667;-33.884;151.182;2022-09-09T08:48:47;9.52;;;3.10;;
29764;SDS011;16667;-33.884;151.182;2022-09-09T08:51:27;7.95;;;2.67;;
29764;SDS011;16667;-33.884;151.182;2022-09-09T08:54:02;9.93;;;2.92;;
29764;SDS011;16667;-33.884;151.182;2022-09-09T08:56:33;8.15;;;2.70;;
29764;SDS011;16667;-33.884;151.182;2022-09-09T08:59:04;10.50;;;2.53;;
29764;SDS011;16667;-33.884;151.182;2022-09-09T09:01:50;9.68;;;3.40;;
29764;SDS011;16667;-33.884;151.182;2022-09-09T09:04:36;10.18;;;3.40;;
29764;SDS011;16667;-33.884;151.182;2022-09-09T09:07:19;6.78;;;2.58;;
29764;SDS011;16667;-33.884;151.182;2022-09-09T09:09:57;6.82;;;2.20;;
29764;SDS011;16667;-33.884;151.182;2022-09-09T09:12:37;8.95;;;2.30;;
29764;SDS011;16667;-33.884;151.182;2022-09-09T09:15:11;8.27;;;2.67;;
29764;SDS011;16667;-33.884;151.182;2022-09-09T09:17:47;8.90;;;2.20;;
29764;SDS011;16667;-33.884;151.182;2022-09-09T09:20:18;5.85;;;2.10;;
29764;SDS011;16667;-33.884;151.182;2022-09-09T09:22:58;5.00;;;1.90;;
29764;SDS011;16667;-33.884;151.182;2022-09-09T09:25:32;4.78;;;2.30;;
29764;SDS011;16667;-33.884;151.182;2022-09-09T09:28:10;4.37;;;2.30;;
29764;SDS011;16667;-33.884;151.182;2022-09-09T09:30:48;10.45;;;2.28;;
29764;SDS011;16667;-33.884;151.182;2022-09-09T09:33:24;6.18;;;2.10;;
29764;SDS011;16667;-33.884;151.182;2022-09-09T09:36:00;9.70;;;2.30;;
29764;SDS011;16667;-33.884;151.182;2022-09-09T09:38:36;3.38;;;1.60;;
29764;SDS011;16667;-33.884;151.182;2022-09-09T09:41:07;5.18;;;2.05;;
29764;SDS011;16667;-33.884;151.182;2022-09-09T09:43:40;5.93;;;2.30;;
29764;SDS011;16667;-33.884;151.182;2022-09-09T09:46:18;6.88;;;1.83;;
29764;SDS011;16667;-33.884;151.182;2022-09-09T09:49:01;5.97;;;2.50;;
29764;SDS011;16667;-33.884;151.182;2022-09-09T09:51:32;5.63;;;2.10;;
29764;SDS011;16667;-33.884;151.182;2022-09-09T09:54:13;4.78;;;1.90;;
29764;SDS011;16667;-33.884;151.182;2022-09-09T09:56:51;5.50;;;2.00;;
29764;SDS011;16667;-33.884;151.182;2022-09-09T09:59:33;9.60;;;2.50;;
29764;SDS011;16667;-33.884;151.182;2022-09-09T10:05:01;5.05;;;2.40;;
29764;SDS011;16667;-33.884;151.182;2022-09-09T10:07:34;7.88;;;2.50;;
29764;SDS011;16667;-33.884;151.182;2022-09-09T10:10:08;5.25;;;2.50;;
29764;SDS011;16667;-33.884;151.182;2022-09-09T10:12:48;4.30;;;2.33;;
29764;SDS011;16667;-33.884;151.182;2022-09-09T10:15:32;3.67;;;2.20;;
29764;SDS011;16667;-33.884;151.182;2022-09-09T10:18:15;7.68;;;2.17;;
29764;SDS011;16667;-33.884;151.182;2022-09-09T10:20:58;6.38;;;2.38;;
29764;SDS011;16667;-33.884;151.182;2022-09-09T10:23:39;4.97;;;2.40;;
29764;SDS011;16667;-33.884;151.182;2022-09-09T10:26:28;5.20;;;3.17;;
29764;SDS011;16667;-33.884;151.182;2022-09-09T10:29:12;6.50;;;3.30;;
29764;SDS011;16667;-33.884;151.182;2022-09-09T10:31:57;5.03;;;3.75;;
29764;SDS011;16667;-33.884;151.182;2022-09-09T10:34:43;8.80;;;3.92;;
29764;SDS011;16667;-33.884;151.182;2022-09-09T10:37:29;3.72;;;2.72;;
29764;SDS011;16667;-33.884;151.182;2022-09-09T10:40:14;3.85;;;2.47;;
29764;SDS011;16667;-33.884;151.182;2022-09-09T10:43:02;5.22;;;2.38;;
29764;SDS011;16667;-33.884;151.182;2022-09-09T10:45:44;3.90;;;2.10;;
29764;SDS011;16667;-33.884;151.182;2022-09-09T10:48:27;6.97;;;2.30;;
29764;SDS011;16667;-33.884;151.182;2022-09-09T10:51:13;13.07;;;2.30;;
29764;SDS011;16667;-33.884;151.182;2022-09-09T10:54:08;9.45;;;2.22;;
29764;SDS011;16667;-33.884;151.182;2022-09-09T10:56:52;3.72;;;2.45;;
29764;SDS011;16667;-33.884;151.182;2022-09-09T10:59:31;5.65;;;2.53;;
29764;SDS011;16667;-33.884;151.182;2022-09-09T11:02:07;4.95;;;2.17;;
29764;SDS011;16667;-33.884;151.182;2022-09-09T11:04:47;5.35;;;2.80;;
29764;SDS011;16667;-33.884;151.182;2022-09-09T11:07:24;4.65;;;2.60;;
29764;SDS011;16667;-33.884;151.182;2022-09-09T11:09:59;9.47;;;2.27;;
29764;SDS011;16667;-33.884;151.182;2022-09-09T11:12:35;3.63;;;1.90;;
29764;SDS011;16667;-33.884;151.182;2022-09-09T11:15:13;5.07;;;1.77;;
29764;SDS011;16667;-33.884;151.182;2022-09-09T11:17:49;4.97;;;1.80;;
29764;SDS011;16667;-33.884;151.182;2022-09-09T11:20:22;2.60;;;1.60;;
29764;SDS011;16667;-33.884;151.182;2022-09-09T11:22:55;3.90;;;2.00;;
29764;SDS011;16667;-33.884;151.182;2022-09-09T11:25:29;8.10;;;1.90;;
29764;SDS011;16667;-33.884;151.182;2022-09-09T11:28:11;18.02;;;2.10;;
29764;SDS011;16667;-33.884;151.182;2022-09-09T11:30:58;3.37;;;1.90;;
29764;SDS011;16667;-33.884;151.182;2022-09-09T11:33:56;6.57;;;1.87;;
29764;SDS011;16667;-33.884;151.182;2022-09-09T11:36:58;2.30;;;1.48;;
29764;SDS011;16667;-33.884;151.182;2022-09-09T11:39:44;2.83;;;1.60;;
29764;SDS011;16667;-33.884;151.182;2022-09-09T11:42:39;2.42;;;1.27;;
29764;SDS011;16667;-33.884;151.182;2022-09-09T11:45:22;2.80;;;1.33;;
29764;SDS011;16667;-33.884;151.182;2022-09-09T11:48:00;3.10;;;1.55;;
29764;SDS011;16667;-33.884;151.182;2022-09-09T11:50:34;2.80;;;1.17;;
29764;SDS011;16667;-33.884;151.182;2022-09-09T11:53:19;1.60;;;1.00;;
29764;SDS011;16667;-33.884;151.182;2022-09-09T11:56:01;1.48;;;1.00;;
29764;SDS011;16667;-33.884;151.182;2022-09-09T11:58:39;1.55;;;1.00;;
29764;SDS011;16667;-33.884;151.182;2022-09-09T12:07:03;3.03;;;1.00;;
29764;SDS011;16667;-33.884;151.182;2022-09-09T12:09:56;1.92;;;1.05;;
29764;SDS011;16667;-33.884;151.182;2022-09-09T12:12:31;1.40;;;0.90;;
29764;SDS011;16667;-33.884;151.182;2022-09-09T12:15:17;5.18;;;0.98;;
29764;SDS011;16667;-33.884;151.182;2022-09-09T12:17:55;3.33;;;1.15;;
29764;SDS011;16667;-33.884;151.182;2022-09-09T12:20:33;7.03;;;1.20;;
29764;SDS011;16667;-33.884;151.182;2022-09-09T12:26:12;6.82;;;1.40;;
29764;SDS011;16667;-33.884;151.182;2022-09-09T12:29:03;18.13;;;2.13;;
29764;SDS011;16667;-33.884;151.182;2022-09-09T12:31:45;1.40;;;1.20;;
29764;SDS011;16667;-33.884;151.182;2022-09-09T12:34:25;8.48;;;1.40;;
29764;SDS011;16667;-33.884;151.182;2022-09-09T12:37:06;11.20;;;1.80;;
29764;SDS011;16667;-33.884;151.182;2022-09-09T12:39:49;15.48;;;1.83;;
29764;SDS011;16667;-33.884;151.182;2022-09-09T12:42:23;2.30;;;1.17;;
29764;SDS011;16667;-33.884;151.182;2022-09-09T12:44:56;5.43;;;1.35;;
29764;SDS011;16667;-33.884;151.182;2022-09-09T12:47:34;5.80;;;1.05;;
29764;SDS011;16667;-33.884;151.182;2022-09-09T12:50:16;5.55;;;1.27;;
29764;SDS011;16667;-33.884;151.182;2022-09-09T12:52:53;5.07;;;1.20;;
29764;SDS011;16667;-33.884;151.182;2022-09-09T12:55:28;3.97;;;1.07;;
29764;SDS011;16667;-33.884;151.182;2022-09-09T12:58:00;5.57;;;1.13;;
29764;SDS011;16667;-33.884;151.182;2022-09-09T13:00:32;9.17;;;1.07;;
29764;SDS011;16667;-33.884;151.182;2022-09-09T13:03:14;2.83;;;0.80;;
29764;SDS011;16667;-33.884;151.182;2022-09-09T13:05:47;1.37;;;0.90;;
29764;SDS011;16667;-33.884;151.182;2022-09-09T13:08:24;1.95;;;0.80;;
29764;SDS011;16667;-33.884;151.182;2022-09-09T13:11:09;2.03;;;0.90;;
29764;SDS011;16667;-33.884;151.182;2022-09-09T13:13:42;2.63;;;0.60;;
29764;SDS011;16667;-33.884;151.182;2022-09-09T13:16:20;2.45;;;0.60;;
29764;SDS011;16667;-33.884;151.182;2022-09-09T13:18:57;0.57;;;0.50;;
29764;SDS011;16667;-33.884;151.182;2022-09-09T13:21:35;0.80;;;0.47;;
29764;SDS011;16667;-33.884;151.182;2022-09-09T13:24:21;3.55;;;0.60;;
29764;SDS011;16667;-33.884;151.182;2022-09-09T13:26:59;1.80;;;0.70;;
29764;SDS011;16667;-33.884;151.182;2022-09-09T13:29:32;0.65;;;0.45;;
29764;SDS011;16667;-33.884;151.182;2022-09-09T13:32:06;0.73;;;0.50;;
29764;SDS011;16667;-33.884;151.182;2022-09-09T13:34:50;0.88;;;0.40;;
29764;SDS011;16667;-33.884;151.182;2022-09-09T13:37:23;2.00;;;0.43;;
29764;SDS011;16667;-33.884;151.182;2022-09-09T13:39:59;1.35;;;0.30;;
29764;SDS011;16667;-33.884;151.182;2022-09-09T13:42:32;0.33;;;0.30;;
29764;SDS011;16667;-33.884;151.182;2022-09-09T13:45:14;0.28;;;0.25;;
29764;SDS011;16667;-33.884;151.182;2022-09-09T13:47:47;1.77;;;0.40;;
29764;SDS011;16667;-33.884;151.182;2022-09-09T13:50:21;0.43;;;0.22;;
29764;SDS011;16667;-33.884;151.182;2022-09-09T13:52:54;1.90;;;0.40;;
29764;SDS011;16667;-33.884;151.182;2022-09-09T13:55:32;1.10;;;0.40;;
29764;SDS011;16667;-33.884;151.182;2022-09-09T13:58:05;1.67;;;0.37;;
29764;SDS011;16667;-33.884;151.182;2022-09-09T14:00:45;0.52;;;0.30;;
29764;SDS011;16667;-33.884;151.182;2022-09-09T14:03:16;0.30;;;0.30;;
29764;SDS011;16667;-33.884;151.182;2022-09-09T14:05:47;1.42;;;0.30;;
29764;SDS011;16667;-33.884;151.182;2022-09-09T14:08:24;1.55;;;0.40;;
29764;SDS011;16667;-33.884;151.182;2022-09-09T14:11:05;2.80;;;0.40;;
29764;SDS011;16667;-33.884;151.182;2022-09-09T14:13:38;4.10;;;0.50;;
29764;SDS011;16667;-33.884;151.182;2022-09-09T14:16:09;6.00;;;0.60;;
29764;SDS011;16667;-33.884;151.182;2022-09-09T14:18:40;1.30;;;0.40;;
29764;SDS011;16667;-33.884;151.182;2022-09-09T14:21:10;2.03;;;0.50;;
29764;SDS011;16667;-33.884;151.182;2022-09-09T14:23:41;3.10;;;0.50;;
29764;SDS011;16667;-33.884;151.182;2022-09-09T14:26:14;2.20;;;0.40;;
29764;SDS011;16667;-33.884;151.182;2022-09-09T14:28:45;0.77;;;0.38;;
29764;SDS011;16667;-33.884;151.182;2022-09-09T14:31:16;0.80;;;0.52;;
29764;SDS011;16667;-33.884;151.182;2022-09-09T14:33:47;1.20;;;0.35;;
29764;SDS011;16667;-33.884;151.182;2022-09-09T14:36:18;1.90;;;0.40;;
29764;SDS011;16667;-33.884;151.182;2022-09-09T14:38:49;1.05;;;0.30;;
29764;SDS011;16667;-33.884;151.182;2022-09-09T14:41:21;0.80;;;0.32;;
29764;SDS011;16667;-33.884;151.182;2022-09-09T14:43:52;1.80;;;0.30;;
29764;SDS011;16667;-33.884;151.182;2022-09-09T14:46:23;1.40;;;0.30;;
29764;SDS011;16667;-33.884;151.182;2022-09-09T14:48:54;0.55;;;0.28;;
29764;SDS011;16667;-33.884;151.182;2022-09-09T14:51:25;0.40;;;0.30;;
29764;SDS011;16667;-33.884;151.182;2022-09-09T14:53:56;0.80;;;0.40;;
29764;SDS011;16667;-33.884;151.182;2022-09-09T14:56:31;0.35;;;0.30;;
29764;SDS011;16667;-33.884;151.182;2022-09-09T14:59:04;0.65;;;0.30;;
29764;SDS011;16667;-33.884;151.182;2022-09-09T15:01:35;2.33;;;0.30;;
29764;SDS011;16667;-33.884;151.182;2022-09-09T15:04:06;4.00;;;0.30;;
29764;SDS011;16667;-33.884;151.182;2022-09-09T15:06:40;0.33;;;0.23;;
29764;SDS011;16667;-33.884;151.182;2022-09-09T15:09:14;0.30;;;0.20;;
29764;SDS011;16667;-33.884;151.182;2022-09-09T15:11:46;0.55;;;0.30;;